Archimede — IXZR — position and weather

sailwx.info

Track history (hours):
 
Tides and Currents Weather Stations Pressure Air Temp Water Temp Dewpoint Dewpoint Depression Visibility Wind Speed Wind Dir Waves Ship Positions

Archimede

Last reported at 2017-Apr-23 11:26 UTC. Time now 2017-Apr-30 13:01 UTC.
Position N 38°12' E 015°34'.

; draft 3 m.

Type: Passenger vessel. MMSI: 247054700.

Date/timePositionNaut miles runAvg speedWind from/ knotsBaromVisibWave heightAir tempDewpointWater temp
2017-Apr-23 11:26N 38°12' E 015°34'0 0.0
2017-Apr-23 11:00N 38°12' E 015°34'3 5.9
2017-Apr-23 10:30N 38°13' E 015°38'5 9.0
2017-Apr-23 10:01N 38°09' E 015°35'3 6.5
2017-Apr-23 09:30N 38°08' E 015°31'1 1.8
2017-Apr-23 09:00N 38°08' E 015°32'612.9
2017-Apr-23 08:30N 38°13' E 015°37'0 0.8
2017-Apr-23 08:00N 38°13' E 015°38'2 3.9
2017-Apr-23 07:30N 38°12' E 015°37'5 9.7
2017-Apr-23 07:00N 38°08' E 015°33'1 1.9
2017-Apr-23 06:30N 38°08' E 015°31'4 7.2
2017-Apr-23 06:01N 38°10' E 015°35'4 7.9
2017-Apr-23 05:30N 38°13' E 015°38'3 5.6
2017-Apr-23 05:00N 38°11' E 015°37'5 9.7
2017-Apr-23 04:30N 38°08' E 015°32'0 0.4
2017-Apr-23 04:00N 38°08' E 015°31'3 6.8
2017-Apr-23 03:30N 38°10' E 015°35'4 8.3
2017-Apr-23 03:00N 38°13' E 015°38'0 0.0
2017-Apr-23 02:30N 38°13' E 015°38'4 8.4
2017-Apr-23 02:00N 38°09' E 015°37'4 8.4
2017-Apr-23 01:30N 38°08' E 015°31'0 0.0
2017-Apr-23 01:00N 38°08' E 015°31'4 8.3
2017-Apr-23 00:30N 38°11' E 015°35'3 6.7
2017-Apr-23 00:00N 38°13' E 015°38'2 4.7
2017-Apr-22 23:30N 38°11' E 015°37'4 8.3
2017-Apr-22 23:00N 38°08' E 015°33'1 2.0
2017-Apr-22 22:30N 38°08' E 015°32'612.5
2017-Apr-22 22:00N 38°13' E 015°37'0 1.0
2017-Apr-22 21:30N 38°13' E 015°38'5 9.1
2017-Apr-22 21:01N 38°09' E 015°35'3 6.2
2017-Apr-22 20:31N 38°08' E 015°31'5 9.5
2017-Apr-22 20:01N 38°12' E 015°35'3 5.6
2017-Apr-22 19:31N 38°13' E 015°38'4 7.7
2017-Apr-22 19:01N 38°10' E 015°37'5 9.2
2017-Apr-22 18:31N 38°08' E 015°31'2 3.7
2017-Apr-22 18:01N 38°09' E 015°33'611.5
2017-Apr-22 17:31N 38°13' E 015°38'1 2.8
2017-Apr-22 17:00N 38°12' E 015°37'5 9.1
2017-Apr-22 16:30N 38°08' E 015°34'2 3.8
2017-Apr-22 16:01N 38°08' E 015°31'510.7
2017-Apr-22 15:30N 38°12' E 015°36'2 3.9
2017-Apr-22 15:00N 38°13' E 015°38'5 9.3
2017-Apr-22 14:30N 38°09' E 015°35'1 1.2
2017-Apr-22 13:30N 38°10' E 015°34'5 9.5
2017-Apr-22 13:00N 38°13' E 015°38'2 4.8
2017-Apr-22 12:30N 38°11' E 015°37'4 8.3
2017-Apr-22 12:01N 38°08' E 015°33'1 2.6
2017-Apr-22 11:31N 38°08' E 015°32'611.9
2017-Apr-22 11:00N 38°13' E 015°36'1 1.8
2017-Apr-22 10:30N 38°13' E 015°37'4 8.6
2017-Apr-22 10:00N 38°09' E 015°36'3 6.8
2017-Apr-22 09:30N 38°08' E 015°31'0 0.0
2017-Apr-22 09:00N 38°08' E 015°31'3 6.7
2017-Apr-22 08:31N 38°10' E 015°35'4 8.6
2017-Apr-22 08:00N 38°13' E 015°38'3 6.0
2017-Apr-22 07:30N 38°11' E 015°37'4 8.3
2017-Apr-22 07:00N 38°08' E 015°32'1 1.6
2017-Apr-22 06:30N 38°08' E 015°31'3 6.1
2017-Apr-22 06:00N 38°10' E 015°34'4 9.0
2017-Apr-22 05:30N 38°13' E 015°38'4 7.8
2017-Apr-22 05:00N 38°10' E 015°37'5 9.4
2017-Apr-22 04:30N 38°08' E 015°31'1 1.1
2017-Apr-22 04:00N 38°08' E 015°32'5 9.2
2017-Apr-22 03:30N 38°12' E 015°36'2 4.9
2017-Apr-22 03:00N 38°13' E 015°38'0 0.7
2017-Apr-22 02:30N 38°13' E 015°38'5 9.5
2017-Apr-22 02:00N 38°09' E 015°35'3 6.5
2017-Apr-22 01:30N 38°08' E 015°31'1 2.0
2017-Apr-22 01:00N 38°09' E 015°32'611.2
2017-Apr-22 00:30N 38°13' E 015°37'1 2.2
2017-Apr-22 00:00N 38°13' E 015°38'3 5.7
2017-Apr-21 23:30N 38°11' E 015°37'5 8.9
2017-Apr-21 23:00N 38°08' E 015°32'1 1.4
2017-Apr-21 22:30N 38°09' E 015°33'612.2
2017-Apr-21 22:00N 38°13' E 015°37'1 2.4
2017-Apr-21 21:30N 38°12' E 015°37'4 8.3
2017-Apr-21 21:00N 38°09' E 015°35'3 5.2
2017-Apr-21 20:30N 38°08' E 015°31'510.7
2017-Apr-21 20:00N 38°12' E 015°36'2 4.6
2017-Apr-21 19:30N 38°13' E 015°38'5 9.1
2017-Apr-21 19:01N 38°09' E 015°36'4 7.6
2017-Apr-21 18:31N 38°08' E 015°31'2 3.5
2017-Apr-21 18:01N 38°09' E 015°33'611.7
2017-Apr-21 17:30N 38°13' E 015°38'2 4.2
2017-Apr-21 17:00N 38°11' E 015°37'5 9.2
2017-Apr-21 16:30N 38°08' E 015°33'0 0.7
2017-Apr-21 16:00N 38°09' E 015°33'611.5
2017-Apr-21 15:30N 38°13' E 015°37'0 1.0
2017-Apr-21 15:00N 38°13' E 015°38'5 9.4
2017-Apr-21 14:31N 38°09' E 015°35'1 1.2
2017-Apr-21 13:30N 38°09' E 015°33'611.1
2017-Apr-21 13:00N 38°13' E 015°38'2 3.0
2017-Apr-21 12:30N 38°12' E 015°37'4 8.4
2017-Apr-21 12:00N 38°09' E 015°34'2 3.9
2017-Apr-21 11:30N 38°08' E 015°32'611.6
2017-Apr-21 11:00N 38°13' E 015°36'1 2.7
2017-Apr-21 10:30N 38°13' E 015°37'4 9.0
2017-Apr-21 10:00N 38°09' E 015°36'3 6.7
2017-Apr-21 09:30N 38°08' E 015°31'0 0.0
2017-Apr-21 09:00N 38°08' E 015°31'510.0
2017-Apr-21 08:30N 38°12' E 015°36'3 5.1
2017-Apr-21 08:00N 38°13' E 015°38'3 5.0
2017-Apr-21 07:30N 38°11' E 015°37'4 8.1
2017-Apr-21 07:00N 38°08' E 015°33'1 3.0
2017-Apr-21 06:30N 38°08' E 015°31'4 7.9
2017-Apr-21 06:00N 38°11' E 015°35'4 7.1
2017-Apr-21 05:30N 38°13' E 015°38'3 5.3
2017-Apr-21 05:01N 38°11' E 015°37'5 9.9
2017-Apr-21 04:31N 38°08' E 015°32'0 0.5
2017-Apr-21 04:00N 38°08' E 015°32'4 7.0
2017-Apr-21 03:31N 38°11' E 015°35'4 7.0
2017-Apr-21 03:01N 38°13' E 015°38'1 1.2
2017-Apr-21 02:30N 38°13' E 015°37'5 9.6
2017-Apr-21 02:00N 38°09' E 015°35'3 5.2
2017-Apr-21 01:30N 38°08' E 015°31'1 1.7
2017-Apr-21 01:01N 38°08' E 015°32'611.0
2017-Apr-21 00:31N 38°13' E 015°36'1 2.7
2017-Apr-21 00:00N 38°13' E 015°38'4 8.9
2017-Apr-20 23:30N 38°09' E 015°37'4 8.3
2017-Apr-20 23:00N 38°08' E 015°31'3 5.3
2017-Apr-20 22:31N 38°10' E 015°34'5 9.5
2017-Apr-20 22:01N 38°13' E 015°38'1 2.6
2017-Apr-20 21:31N 38°12' E 015°37'4 8.4
2017-Apr-20 21:01N 38°09' E 015°34'2 4.6
2017-Apr-20 20:31N 38°08' E 015°31'611.7
2017-Apr-20 20:00N 38°13' E 015°36'2 3.5
2017-Apr-20 19:30N 38°13' E 015°38'4 8.3
2017-Apr-20 19:00N 38°09' E 015°37'4 8.6
2017-Apr-20 18:30N 38°08' E 015°31'2 4.5
2017-Apr-20 18:01N 38°09' E 015°34'510.6
2017-Apr-20 17:31N 38°13' E 015°38'3 5.1
2017-Apr-20 17:01N 38°11' E 015°37'4 8.3
2017-Apr-20 16:31N 38°08' E 015°33'1 1.5
2017-Apr-20 16:01N 38°08' E 015°32'612.4
2017-Apr-20 15:30N 38°13' E 015°37'1 1.2
2017-Apr-20 15:00N 38°13' E 015°37'4 8.7
2017-Apr-20 14:30N 38°09' E 015°35'1 1.2
2017-Apr-20 13:30N 38°09' E 015°34'510.3
2017-Apr-20 13:00N 38°13' E 015°38'2 3.9
2017-Apr-20 12:30N 38°12' E 015°37'4 8.3
2017-Apr-20 12:00N 38°08' E 015°34'1 2.4
2017-Apr-20 11:30N 38°08' E 015°32'612.0
2017-Apr-20 11:00N 38°13' E 015°37'1 1.6
2017-Apr-20 10:30N 38°13' E 015°38'5 9.1
2017-Apr-20 10:00N 38°09' E 015°36'3 7.0
2017-Apr-20 09:30N 38°08' E 015°31'0 0.0
2017-Apr-20 09:01N 38°08' E 015°31'510.0
2017-Apr-20 08:30N 38°12' E 015°36'3 5.1
2017-Apr-20 08:00N 38°13' E 015°38'4 7.8
2017-Apr-20 07:30N 38°10' E 015°36'4 8.5
2017-Apr-20 07:00N 38°08' E 015°31'0 0.0
2017-Apr-20 06:30N 38°08' E 015°31'1 1.0
2017-Apr-20 06:00N 38°08' E 015°32'612.5
2017-Apr-20 05:31N 38°13' E 015°36'1 2.5
2017-Apr-20 05:00N 38°13' E 015°38'3 7.0
2017-Apr-20 04:30N 38°10' E 015°36'4 9.0
2017-Apr-20 04:01N 38°08' E 015°31'2 3.3
2017-Apr-20 03:30N 38°09' E 015°33'611.7
2017-Apr-20 03:01N 38°13' E 015°38'0 0.0
2017-Apr-20 02:31N 38°13' E 015°38'5 9.0
2017-Apr-20 02:01N 38°09' E 015°36'4 7.4
2017-Apr-20 01:31N 38°08' E 015°31'1 2.5
2017-Apr-20 01:01N 38°09' E 015°33'511.0
2017-Apr-20 00:30N 38°13' E 015°37'1 1.0
2017-Apr-20 00:01N 38°13' E 015°38'5 9.2
2017-Apr-19 23:31N 38°09' E 015°35'3 6.3
2017-Apr-19 23:00N 38°08' E 015°31'4 8.4
2017-Apr-19 22:30N 38°11' E 015°35'3 6.4
2017-Apr-19 22:00N 38°13' E 015°38'3 6.0
2017-Apr-19 21:31N 38°10' E 015°37'5 9.3
2017-Apr-19 21:00N 38°08' E 015°32'1 2.0
2017-Apr-19 20:31N 38°09' E 015°33'611.6
2017-Apr-19 20:01N 38°13' E 015°37'0 0.8
2017-Apr-19 19:31N 38°13' E 015°38'4 8.4
2017-Apr-19 19:01N 38°09' E 015°36'4 7.3
2017-Apr-19 18:31N 38°08' E 015°31'2 3.1
2017-Apr-19 18:01N 38°09' E 015°33'612.1
2017-Apr-19 17:31N 38°13' E 015°38'1 2.6
2017-Apr-19 17:01N 38°12' E 015°37'4 8.4
2017-Apr-19 16:30N 38°09' E 015°35'3 4.9
2017-Apr-19 16:00N 38°08' E 015°31'4 7.6
2017-Apr-19 15:31N 38°08' E 015°36'2 4.7
2017-Apr-19 15:00N 38°07' E 015°39'1 1.8
2017-Apr-19 14:30N 38°08' E 015°38'5 5.3
2017-Apr-19 13:30N 38°08' E 015°31'510.6
2017-Apr-19 13:00N 38°08' E 015°38'1 2.0
2017-Apr-19 12:30N 38°07' E 015°39'4 8.0
2017-Apr-19 12:01N 38°08' E 015°34'2 4.0
2017-Apr-19 11:29N 38°08' E 015°31'4 7.6
2017-Apr-19 11:00N 38°08' E 015°36'2 4.9
2017-Apr-19 10:31N 38°07' E 015°39'3 6.1
2017-Apr-19 10:00N 38°08' E 015°35'3 6.3
2017-Apr-19 09:30N 38°08' E 015°31'1 2.6
2017-Apr-19 09:00N 38°09' E 015°33'612.0
2017-Apr-19 08:31N 38°13' E 015°37'0 1.0
2017-Apr-19 08:01N 38°13' E 015°38'2 3.8
2017-Apr-19 07:30N 38°12' E 015°37'4 8.1
2017-Apr-19 07:00N 38°09' E 015°34'2 3.8
2017-Apr-19 06:30N 38°08' E 015°31'5 9.5
2017-Apr-19 06:00N 38°12' E 015°35'3 5.6
2017-Apr-19 05:31N 38°13' E 015°38'3 6.4
2017-Apr-19 05:01N 38°11' E 015°35'4 8.5
2017-Apr-19 04:30N 38°08' E 015°31'1 1.0
2017-Apr-19 04:01N 38°08' E 015°32'611.4
2017-Apr-19 03:31N 38°13' E 015°36'1 1.5
2017-Apr-19 03:00N 38°12' E 015°36'2 3.8
2017-Apr-19 02:30N 38°13' E 015°34'0 0.0
2017-Apr-19 02:01N 38°13' E 015°34'0 0.0
2017-Apr-19 01:31N 38°13' E 015°34'0 0.2
2017-Apr-19 01:01N 38°13' E 015°34'3 5.2
2017-Apr-19 00:30N 38°13' E 015°37'2 3.6
2017-Apr-19 00:00N 38°11' E 015°37'510.6
2017-Apr-18 23:30N 38°08' E 015°32'1 2.3
2017-Apr-18 23:00N 38°09' E 015°33'510.8
2017-Apr-18 22:31N 38°13' E 015°37'1 1.8
2017-Apr-18 22:00N 38°12' E 015°37'5 9.5
2017-Apr-18 21:30N 38°08' E 015°33'1 2.3
2017-Apr-18 21:00N 38°08' E 015°32'511.1
2017-Apr-18 20:31N 38°13' E 015°36'2 3.4
2017-Apr-18 20:01N 38°13' E 015°38'5 9.8
2017-Apr-18 19:30N 38°09' E 015°36'4 7.2
2017-Apr-18 19:00N 38°08' E 015°31'4 8.7
2017-Apr-18 18:30N 38°11' E 015°35'3 6.2
2017-Apr-18 18:00N 38°13' E 015°38'3 6.8
2017-Apr-18 17:30N 38°13' E 015°34'0 0.2
2017-Apr-18 17:00N 38°13' E 015°34'3 6.6
2017-Apr-18 16:30N 38°13' E 015°38'2 4.1
2017-Apr-18 16:01N 38°12' E 015°36'1 3.0
2017-Apr-18 15:30N 38°13' E 015°34'3 6.7
2017-Apr-18 15:00N 38°13' E 015°38'0 0.7
2017-Apr-18 14:30N 38°13' E 015°38'0 0.4
2017-Apr-18 13:30N 38°13' E 015°38'1 2.6
2017-Apr-18 13:00N 38°13' E 015°36'2 4.3
2017-Apr-18 12:30N 38°13' E 015°34'3 6.8
2017-Apr-18 12:00N 38°13' E 015°38'3 6.2
2017-Apr-18 11:30N 38°13' E 015°34'1 2.6
2017-Apr-18 11:00N 38°13' E 015°36'2 3.7
2017-Apr-18 10:30N 38°13' E 015°38'4 7.4
2017-Apr-18 10:00N 38°10' E 015°37'5 9.6
2017-Apr-18 09:30N 38°08' E 015°31'1 1.1
2017-Apr-18 09:00N 38°08' E 015°32'611.4
2017-Apr-18 08:30N 38°13' E 015°36'2 3.1
2017-Apr-18 08:00N 38°13' E 015°38'2 4.7
2017-Apr-18 07:30N 38°11' E 015°37'4 8.6
2017-Apr-18 07:00N 38°08' E 015°33'1 2.5
2017-Apr-18 06:30N 38°08' E 015°31'510.5
2017-Apr-18 06:01N 38°12' E 015°36'2 4.6
2017-Apr-18 05:31N 38°13' E 015°38'2 4.9
2017-Apr-18 05:00N 38°11' E 015°37'4 8.1
2017-Apr-18 04:31N 38°08' E 015°33'2 3.1
2017-Apr-18 04:00N 38°08' E 015°31'2 4.1
2017-Apr-18 03:31N 38°09' E 015°34'611.1
2017-Apr-18 03:00N 38°13' E 015°38'0 0.2
2017-Apr-18 02:30N 38°13' E 015°38'510.4
2017-Apr-18 02:01N 38°09' E 015°35'3 6.1
2017-Apr-18 01:30N 38°08' E 015°31'1 1.3
2017-Apr-18 01:00N 38°08' E 015°32'611.2
2017-Apr-18 00:30N 38°13' E 015°36'2 3.2
2017-Apr-18 00:00N 38°13' E 015°38'3 5.6
2017-Apr-17 23:30N 38°11' E 015°37'510.2
2017-Apr-17 23:00N 38°08' E 015°31'2 4.3
2017-Apr-17 22:30N 38°09' E 015°34'510.7
2017-Apr-17 22:00N 38°14' E 015°38'1 3.0
2017-Apr-17 21:30N 38°12' E 015°37'5 9.4
2017-Apr-17 21:01N 38°08' E 015°34'1 2.3
2017-Apr-17 20:30N 38°08' E 015°32'611.2
2017-Apr-17 20:00N 38°13' E 015°36'1 2.2
2017-Apr-17 19:30N 38°13' E 015°38'5 9.4
2017-Apr-17 19:00N 38°09' E 015°35'3 5.2
2017-Apr-17 18:30N 38°08' E 015°31'0 0.5
2017-Apr-17 18:00N 38°08' E 015°32'612.6
2017-Apr-17 17:30N 38°13' E 015°36'1 2.2
2017-Apr-17 17:00N 38°12' E 015°37'4 8.6
2017-Apr-17 16:30N 38°09' E 015°35'3 4.9
2017-Apr-17 15:59N 38°08' E 015°31'613.0
2017-Apr-17 15:31N 38°13' E 015°36'2 3.3
2017-Apr-17 15:00N 38°13' E 015°38'4 8.3
2017-Apr-17 14:30N 38°09' E 015°36'2 2.4
2017-Apr-17 13:30N 38°09' E 015°33'612.0
2017-Apr-17 13:00N 38°13' E 015°38'1 2.9
2017-Apr-17 12:30N 38°12' E 015°37'5 9.1
2017-Apr-17 12:00N 38°09' E 015°34'2 3.2
2017-Apr-17 11:29N 38°08' E 015°32'511.0
2017-Apr-17 11:00N 38°12' E 015°35'2 4.6
2017-Apr-17 10:30N 38°13' E 015°38'4 8.9
2017-Apr-17 10:00N 38°09' E 015°36'4 5.5
2017-Apr-17 09:18N 38°08' E 015°31'1 2.1
2017-Apr-17 08:58N 38°08' E 015°32'511.4
2017-Apr-17 08:30N 38°13' E 015°36'2 3.3
2017-Apr-17 08:00N 38°13' E 015°38'3 6.7
2017-Apr-17 07:30N 38°10' E 015°37'5 9.6
2017-Apr-17 06:59N 38°08' E 015°31'0 0.0
2017-Apr-17 06:20N 38°08' E 015°31'412.0
2017-Apr-17 06:00N 38°11' E 015°35'3 7.0
2017-Apr-17 05:30N 38°13' E 015°38'3 7.0
2017-Apr-17 05:00N 38°10' E 015°37'5 4.3
2017-Apr-17 03:50N 38°08' E 015°31'3 8.8
2017-Apr-17 03:30N 38°10' E 015°35'5 9.5
2017-Apr-17 03:00N 38°13' E 015°38'1 2.9
2017-Apr-17 02:30N 38°12' E 015°37'5 9.6
2017-Apr-17 02:00N 38°08' E 015°33'1 1.6
2017-Apr-17 01:06N 38°08' E 015°31'1 8.4
2017-Apr-17 01:00N 38°08' E 015°32'611.6
2017-Apr-17 00:30N 38°13' E 015°37'1 2.2
2017-Apr-17 00:00N 38°13' E 015°38'3 5.2
2017-Apr-16 23:30N 38°11' E 015°37'510.4
2017-Apr-16 22:59N 38°08' E 015°31'2 3.3
2017-Apr-16 22:30N 38°09' E 015°33'511.0
2017-Apr-16 22:00N 38°13' E 015°37'1 3.0
2017-Apr-16 21:30N 38°12' E 015°37'5 9.5
2017-Apr-16 21:00N 38°08' E 015°33'2 3.0
2017-Apr-16 20:30N 38°08' E 015°31'510.1
2017-Apr-16 20:00N 38°12' E 015°35'3 5.2
2017-Apr-16 19:30N 38°13' E 015°38'4 8.5
2017-Apr-16 19:00N 38°09' E 015°36'4 4.8
2017-Apr-16 18:10N 38°08' E 015°31'1 8.2
2017-Apr-16 18:00N 38°09' E 015°33'611.7
2017-Apr-16 17:30N 38°13' E 015°37'2 4.3
2017-Apr-16 17:00N 38°11' E 015°37'4 8.6
2017-Apr-16 16:30N 38°08' E 015°33'1 2.7
2017-Apr-16 16:00N 38°08' E 015°31'5 9.8
2017-Apr-16 15:29N 38°12' E 015°35'2 5.0
2017-Apr-16 15:00N 38°13' E 015°38'4 8.6
2017-Apr-16 14:30N 38°09' E 015°36'2 1.9
2017-Apr-16 13:30N 38°09' E 015°34'510.2
2017-Apr-16 13:00N 38°13' E 015°38'1 1.8
2017-Apr-16 12:30N 38°13' E 015°37'5 9.0
2017-Apr-16 11:59N 38°09' E 015°34'2 4.7
2017-Apr-16 11:28N 38°08' E 015°31'612.2
2017-Apr-16 11:00N 38°13' E 015°36'2 3.9
2017-Apr-16 10:30N 38°13' E 015°38'5 9.5
2017-Apr-16 10:00N 38°09' E 015°36'4 7.2
2017-Apr-16 09:30N 38°08' E 015°31'0 0.0
2017-Apr-16 09:00N 38°08' E 015°31'5 9.8
2017-Apr-16 08:30N 38°12' E 015°35'3 5.3
2017-Apr-16 08:00N 38°13' E 015°38'1 1.9
2017-Apr-16 07:30N 38°13' E 015°37'5 9.1
2017-Apr-16 06:59N 38°08' E 015°35'3 5.2
2017-Apr-16 06:30N 38°08' E 015°31'4 8.2
2017-Apr-16 06:00N 38°11' E 015°35'4 7.1
2017-Apr-16 05:31N 38°13' E 015°38'3 5.0
2017-Apr-16 05:01N 38°11' E 015°37'4 8.7
2017-Apr-16 04:30N 38°08' E 015°33'1 1.3
2017-Apr-16 03:46N 38°08' E 015°31'312.4
2017-Apr-16 03:30N 38°10' E 015°35'4 8.6
2017-Apr-16 03:00N 38°13' E 015°38'3 5.4
2017-Apr-16 02:30N 38°11' E 015°37'4 8.2
2017-Apr-16 02:00N 38°08' E 015°33'1 1.7
2017-Apr-16 01:17N 38°08' E 015°31'3 9.1
2017-Apr-16 01:00N 38°10' E 015°34'5 9.9
2017-Apr-16 00:30N 38°13' E 015°38'0 0.0
2017-Apr-16 00:00N 38°13' E 015°38'4 9.0
2017-Apr-15 23:30N 38°09' E 015°36'4 7.8
2017-Apr-15 23:00N 38°08' E 015°31'1 2.4
2017-Apr-15 22:30N 38°09' E 015°33'611.4
2017-Apr-15 22:00N 38°13' E 015°37'0 0.8
2017-Apr-15 21:31N 38°13' E 015°37'510.0
2017-Apr-15 21:00N 38°09' E 015°34'2 4.7
2017-Apr-15 20:30N 38°08' E 015°31'5 9.3
2017-Apr-15 20:00N 38°11' E 015°35'3 5.7
2017-Apr-15 19:30N 38°13' E 015°38'4 8.5
2017-Apr-15 19:00N 38°09' E 015°36'4 8.2
2017-Apr-15 18:30N 38°08' E 015°31'2 4.8
2017-Apr-15 18:00N 38°09' E 015°34'510.3
2017-Apr-15 17:30N 38°13' E 015°38'3 5.8
2017-Apr-15 17:00N 38°11' E 015°37'5 9.5
2017-Apr-15 16:30N 38°08' E 015°32'2 3.8
2017-Apr-15 16:00N 38°09' E 015°34'510.8
2017-Apr-15 15:30N 38°13' E 015°38'3 6.0
2017-Apr-15 15:00N 38°10' E 015°37'4 8.7
2017-Apr-15 14:30N 38°08' E 015°32'6 5.8
2017-Apr-15 13:30N 38°13' E 015°36'1 1.9
2017-Apr-15 13:00N 38°13' E 015°37'4 8.3
2017-Apr-15 12:30N 38°09' E 015°36'3 6.8
2017-Apr-15 12:00N 38°08' E 015°31'1 2.4
2017-Apr-15 11:30N 38°09' E 015°33'612.6
2017-Apr-15 11:01N 38°14' E 015°38'0 0.5
2017-Apr-15 10:31N 38°13' E 015°38'5 9.1
2017-Apr-15 10:00N 38°09' E 015°36'4 7.5
2017-Apr-15 09:30N 38°08' E 015°31'0 0.0
2017-Apr-15 09:00N 38°08' E 015°31'5 9.3
2017-Apr-15 08:30N 38°11' E 015°35'3 6.0
2017-Apr-15 08:01N 38°13' E 015°38'2 4.9
2017-Apr-15 07:30N 38°11' E 015°37'510.0
2017-Apr-15 07:00N 38°08' E 015°32'0 0.7
2017-Apr-15 06:31N 38°08' E 015°31'4 8.1
2017-Apr-15 06:01N 38°11' E 015°35'3 6.8
2017-Apr-15 05:30N 38°13' E 015°38'4 7.7
2017-Apr-15 05:01N 38°10' E 015°37'5 9.6
2017-Apr-15 04:30N 38°08' E 015°31'0 0.0
2017-Apr-15 04:00N 38°08' E 015°31'2 4.6
2017-Apr-15 03:30N 38°09' E 015°34'510.7
2017-Apr-15 03:00N 38°13' E 015°38'2 3.8
2017-Apr-15 02:30N 38°12' E 015°37'4 8.1
2017-Apr-15 02:00N 38°08' E 015°34'2 4.3
2017-Apr-15 01:30N 38°08' E 015°31'0 0.6
2017-Apr-15 01:00N 38°08' E 015°32'612.2
2017-Apr-15 00:30N 38°13' E 015°36'1 2.2
2017-Apr-15 00:00N 38°13' E 015°38'5 9.7
2017-Apr-14 23:30N 38°09' E 015°35'3 6.3
2017-Apr-14 23:00N 38°08' E 015°31'4 7.1
2017-Apr-14 22:30N 38°10' E 015°35'4 7.9
2017-Apr-14 22:01N 38°13' E 015°38'2 4.6
2017-Apr-14 21:31N 38°11' E 015°37'5 9.6
2017-Apr-14 21:00N 38°08' E 015°32'1 1.5
2017-Apr-14 20:30N 38°08' E 015°31'510.9
2017-Apr-14 20:00N 38°12' E 015°36'2 3.5
2017-Apr-14 19:30N 38°13' E 015°38'510.0
2017-Apr-14 19:00N 38°09' E 015°35'3 5.5
2017-Apr-14 18:30N 38°08' E 015°31'4 8.2
2017-Apr-14 18:00N 38°11' E 015°35'3 6.9
2017-Apr-14 17:30N 38°13' E 015°38'4 7.2
2017-Apr-14 17:00N 38°10' E 015°37'5 9.2
2017-Apr-14 16:30N 38°08' E 015°31'3 5.1
2017-Apr-14 16:00N 38°10' E 015°34'510.0
2017-Apr-14 15:30N 38°13' E 015°38'2 4.6
2017-Apr-14 15:00N 38°11' E 015°37'4 8.3
2017-Apr-14 14:31N 38°08' E 015°33'4 4.3
2017-Apr-14 13:30N 38°12' E 015°36'2 4.1
2017-Apr-14 13:00N 38°13' E 015°38'4 8.6
2017-Apr-14 12:31N 38°09' E 015°36'4 8.0
2017-Apr-14 12:00N 38°08' E 015°31'0 0.0
2017-Apr-14 11:30N 38°08' E 015°31'511.0
2017-Apr-14 11:01N 38°12' E 015°36'2 4.2
2017-Apr-14 10:31N 38°13' E 015°38'4 7.3
2017-Apr-14 10:00N 38°10' E 015°37'4 9.0
2017-Apr-14 09:31N 38°08' E 015°31'0 0.0
2017-Apr-14 09:01N 38°08' E 015°31'2 4.1
2017-Apr-14 08:31N 38°09' E 015°34'511.0
2017-Apr-14 08:01N 38°13' E 015°38'1 1.4
2017-Apr-14 07:31N 38°13' E 015°37'5 9.5
2017-Apr-14 07:00N 38°09' E 015°34'3 5.1
2017-Apr-14 06:30N 38°08' E 015°31'2 4.1
2017-Apr-14 06:01N 38°09' E 015°34'511.0
2017-Apr-14 05:31N 38°14' E 015°38'0 0.8
2017-Apr-14 05:01N 38°13' E 015°38'5 9.5
2017-Apr-14 04:31N 38°09' E 015°35'3 6.2
2017-Apr-14 04:00N 38°08' E 015°31'2 3.9
2017-Apr-14 03:31N 38°09' E 015°33'611.3
2017-Apr-14 03:01N 38°14' E 015°38'0 0.9
2017-Apr-14 02:31N 38°13' E 015°37'5 9.2
2017-Apr-14 02:01N 38°09' E 015°35'3 6.6
2017-Apr-14 01:30N 38°08' E 015°31'1 1.8
2017-Apr-14 01:01N 38°08' E 015°32'612.7
2017-Apr-14 00:30N 38°13' E 015°38'0 0.7
2017-Apr-14 00:00N 38°13' E 015°38'3 5.9
2017-Apr-13 23:30N 38°11' E 015°37'5 9.8
2017-Apr-13 23:00N 38°08' E 015°31'2 4.3
2017-Apr-13 22:30N 38°09' E 015°34'510.7
2017-Apr-13 22:00N 38°13' E 015°38'2 3.0
2017-Apr-13 21:30N 38°12' E 015°37'5 9.2
2017-Apr-13 21:00N 38°08' E 015°33'1 2.3
2017-Apr-13 20:30N 38°08' E 015°32'611.3
2017-Apr-13 20:01N 38°13' E 015°36'2 3.3
2017-Apr-13 19:31N 38°13' E 015°38'510.0
2017-Apr-13 19:00N 38°09' E 015°35'3 6.5
2017-Apr-13 18:30N 38°08' E 015°31'3 6.4
2017-Apr-13 18:01N 38°10' E 015°35'4 8.6
2017-Apr-13 17:30N 38°13' E 015°38'3 5.5
2017-Apr-13 17:00N 38°11' E 015°37'5 9.8
2017-Apr-13 16:30N 38°08' E 015°32'2 4.8
2017-Apr-13 16:00N 38°10' E 015°34'5 9.3
2017-Apr-13 15:30N 38°13' E 015°38'3 5.7
2017-Apr-13 15:00N 38°11' E 015°37'5 4.7
2017-Apr-13 14:00N 38°08' E 015°32'2 4.7
2017-Apr-13 13:31N 38°10' E 015°34'5 9.5
2017-Apr-13 13:00N 38°13' E 015°38'2 4.3
2017-Apr-13 12:30N 38°11' E 015°37'4 7.5
2017-Apr-13 12:00N 38°08' E 015°34'2 4.2
2017-Apr-13 11:29N 38°08' E 015°31'  
Track history (hours):
 
Tides and Currents Weather Stations Pressure Air Temp Water Temp Dewpoint Dewpoint Depression Visibility Wind Speed Wind Dir Waves Ship Positions

Archimede

Last reported at 2017-Apr-23 11:26 UTC. Time now 2017-Apr-30 13:01 UTC.
Position N 38°12' E 015°34'.

; draft 3 m.

Type: Passenger vessel. MMSI: 247054700.

Date/timePositionNaut miles runAvg speedWind from/ knotsBaromVisibWave heightAir tempDewpointWater temp
2017-Apr-23 11:26N 38°12' E 015°34'0 0.0
2017-Apr-23 11:00N 38°12' E 015°34'3 5.9
2017-Apr-23 10:30N 38°13' E 015°38'5 9.0
2017-Apr-23 10:01N 38°09' E 015°35'3 6.5
2017-Apr-23 09:30N 38°08' E 015°31'1 1.8
2017-Apr-23 09:00N 38°08' E 015°32'612.9
2017-Apr-23 08:30N 38°13' E 015°37'0 0.8
2017-Apr-23 08:00N 38°13' E 015°38'2 3.9
2017-Apr-23 07:30N 38°12' E 015°37'5 9.7
2017-Apr-23 07:00N 38°08' E 015°33'1 1.9
2017-Apr-23 06:30N 38°08' E 015°31'4 7.2
2017-Apr-23 06:01N 38°10' E 015°35'4 7.9
2017-Apr-23 05:30N 38°13' E 015°38'3 5.6
2017-Apr-23 05:00N 38°11' E 015°37'5 9.7
2017-Apr-23 04:30N 38°08' E 015°32'0 0.4
2017-Apr-23 04:00N 38°08' E 015°31'3 6.8
2017-Apr-23 03:30N 38°10' E 015°35'4 8.3
2017-Apr-23 03:00N 38°13' E 015°38'0 0.0
2017-Apr-23 02:30N 38°13' E 015°38'4 8.4
2017-Apr-23 02:00N 38°09' E 015°37'4 8.4
2017-Apr-23 01:30N 38°08' E 015°31'0 0.0
2017-Apr-23 01:00N 38°08' E 015°31'4 8.3
2017-Apr-23 00:30N 38°11' E 015°35'3 6.7
2017-Apr-23 00:00N 38°13' E 015°38'2 4.7
2017-Apr-22 23:30N 38°11' E 015°37'4 8.3
2017-Apr-22 23:00N 38°08' E 015°33'1 2.0
2017-Apr-22 22:30N 38°08' E 015°32'612.5
2017-Apr-22 22:00N 38°13' E 015°37'0 1.0
2017-Apr-22 21:30N 38°13' E 015°38'5 9.1
2017-Apr-22 21:01N 38°09' E 015°35'3 6.2
2017-Apr-22 20:31N 38°08' E 015°31'5 9.5
2017-Apr-22 20:01N 38°12' E 015°35'3 5.6
2017-Apr-22 19:31N 38°13' E 015°38'4 7.7
2017-Apr-22 19:01N 38°10' E 015°37'5 9.2
2017-Apr-22 18:31N 38°08' E 015°31'2 3.7
2017-Apr-22 18:01N 38°09' E 015°33'611.5
2017-Apr-22 17:31N 38°13' E 015°38'1 2.8
2017-Apr-22 17:00N 38°12' E 015°37'5 9.1
2017-Apr-22 16:30N 38°08' E 015°34'2 3.8
2017-Apr-22 16:01N 38°08' E 015°31'510.7
2017-Apr-22 15:30N 38°12' E 015°36'2 3.9
2017-Apr-22 15:00N 38°13' E 015°38'5 9.3
2017-Apr-22 14:30N 38°09' E 015°35'1 1.2
2017-Apr-22 13:30N 38°10' E 015°34'5 9.5
2017-Apr-22 13:00N 38°13' E 015°38'2 4.8
2017-Apr-22 12:30N 38°11' E 015°37'4 8.3
2017-Apr-22 12:01N 38°08' E 015°33'1 2.6
2017-Apr-22 11:31N 38°08' E 015°32'611.9
2017-Apr-22 11:00N 38°13' E 015°36'1 1.8
2017-Apr-22 10:30N 38°13' E 015°37'4 8.6
2017-Apr-22 10:00N 38°09' E 015°36'3 6.8
2017-Apr-22 09:30N 38°08' E 015°31'0 0.0
2017-Apr-22 09:00N 38°08' E 015°31'3 6.7
2017-Apr-22 08:31N 38°10' E 015°35'4 8.6
2017-Apr-22 08:00N 38°13' E 015°38'3 6.0
2017-Apr-22 07:30N 38°11' E 015°37'4 8.3
2017-Apr-22 07:00N 38°08' E 015°32'1 1.6
2017-Apr-22 06:30N 38°08' E 015°31'3 6.1
2017-Apr-22 06:00N 38°10' E 015°34'4 9.0
2017-Apr-22 05:30N 38°13' E 015°38'4 7.8
2017-Apr-22 05:00N 38°10' E 015°37'5 9.4
2017-Apr-22 04:30N 38°08' E 015°31'1 1.1
2017-Apr-22 04:00N 38°08' E 015°32'5 9.2
2017-Apr-22 03:30N 38°12' E 015°36'2 4.9
2017-Apr-22 03:00N 38°13' E 015°38'0 0.7
2017-Apr-22 02:30N 38°13' E 015°38'5 9.5
2017-Apr-22 02:00N 38°09' E 015°35'3 6.5
2017-Apr-22 01:30N 38°08' E 015°31'1 2.0
2017-Apr-22 01:00N 38°09' E 015°32'611.2
2017-Apr-22 00:30N 38°13' E 015°37'1 2.2
2017-Apr-22 00:00N 38°13' E 015°38'3 5.7
2017-Apr-21 23:30N 38°11' E 015°37'5 8.9
2017-Apr-21 23:00N 38°08' E 015°32'1 1.4
2017-Apr-21 22:30N 38°09' E 015°33'612.2
2017-Apr-21 22:00N 38°13' E 015°37'1 2.4
2017-Apr-21 21:30N 38°12' E 015°37'4 8.3
2017-Apr-21 21:00N 38°09' E 015°35'3 5.2
2017-Apr-21 20:30N 38°08' E 015°31'510.7
2017-Apr-21 20:00N 38°12' E 015°36'2 4.6
2017-Apr-21 19:30N 38°13' E 015°38'5 9.1
2017-Apr-21 19:01N 38°09' E 015°36'4 7.6
2017-Apr-21 18:31N 38°08' E 015°31'2 3.5
2017-Apr-21 18:01N 38°09' E 015°33'611.7
2017-Apr-21 17:30N 38°13' E 015°38'2 4.2
2017-Apr-21 17:00N 38°11' E 015°37'5 9.2
2017-Apr-21 16:30N 38°08' E 015°33'0 0.7
2017-Apr-21 16:00N 38°09' E 015°33'611.5
2017-Apr-21 15:30N 38°13' E 015°37'0 1.0
2017-Apr-21 15:00N 38°13' E 015°38'5 9.4
2017-Apr-21 14:31N 38°09' E 015°35'1 1.2
2017-Apr-21 13:30N 38°09' E 015°33'611.1
2017-Apr-21 13:00N 38°13' E 015°38'2 3.0
2017-Apr-21 12:30N 38°12' E 015°37'4 8.4
2017-Apr-21 12:00N 38°09' E 015°34'2 3.9
2017-Apr-21 11:30N 38°08' E 015°32'611.6
2017-Apr-21 11:00N 38°13' E 015°36'1 2.7
2017-Apr-21 10:30N 38°13' E 015°37'4 9.0
2017-Apr-21 10:00N 38°09' E 015°36'3 6.7
2017-Apr-21 09:30N 38°08' E 015°31'0 0.0
2017-Apr-21 09:00N 38°08' E 015°31'510.0
2017-Apr-21 08:30N 38°12' E 015°36'3 5.1
2017-Apr-21 08:00N 38°13' E 015°38'3 5.0
2017-Apr-21 07:30N 38°11' E 015°37'4 8.1
2017-Apr-21 07:00N 38°08' E 015°33'1 3.0
2017-Apr-21 06:30N 38°08' E 015°31'4 7.9
2017-Apr-21 06:00N 38°11' E 015°35'4 7.1
2017-Apr-21 05:30N 38°13' E 015°38'3 5.3
2017-Apr-21 05:01N 38°11' E 015°37'5 9.9
2017-Apr-21 04:31N 38°08' E 015°32'0 0.5
2017-Apr-21 04:00N 38°08' E 015°32'4 7.0
2017-Apr-21 03:31N 38°11' E 015°35'4 7.0
2017-Apr-21 03:01N 38°13' E 015°38'1 1.2
2017-Apr-21 02:30N 38°13' E 015°37'5 9.6
2017-Apr-21 02:00N 38°09' E 015°35'3 5.2
2017-Apr-21 01:30N 38°08' E 015°31'1 1.7
2017-Apr-21 01:01N 38°08' E 015°32'611.0
2017-Apr-21 00:31N 38°13' E 015°36'1 2.7
2017-Apr-21 00:00N 38°13' E 015°38'4 8.9
2017-Apr-20 23:30N 38°09' E 015°37'4 8.3
2017-Apr-20 23:00N 38°08' E 015°31'3 5.3
2017-Apr-20 22:31N 38°10' E 015°34'5 9.5
2017-Apr-20 22:01N 38°13' E 015°38'1 2.6
2017-Apr-20 21:31N 38°12' E 015°37'4 8.4
2017-Apr-20 21:01N 38°09' E 015°34'2 4.6
2017-Apr-20 20:31N 38°08' E 015°31'611.7
2017-Apr-20 20:00N 38°13' E 015°36'2 3.5
2017-Apr-20 19:30N 38°13' E 015°38'4 8.3
2017-Apr-20 19:00N 38°09' E 015°37'4 8.6
2017-Apr-20 18:30N 38°08' E 015°31'2 4.5
2017-Apr-20 18:01N 38°09' E 015°34'510.6
2017-Apr-20 17:31N 38°13' E 015°38'3 5.1
2017-Apr-20 17:01N 38°11' E 015°37'4 8.3
2017-Apr-20 16:31N 38°08' E 015°33'1 1.5
2017-Apr-20 16:01N 38°08' E 015°32'612.4
2017-Apr-20 15:30N 38°13' E 015°37'1 1.2
2017-Apr-20 15:00N 38°13' E 015°37'4 8.7
2017-Apr-20 14:30N 38°09' E 015°35'1 1.2
2017-Apr-20 13:30N 38°09' E 015°34'510.3
2017-Apr-20 13:00N 38°13' E 015°38'2 3.9
2017-Apr-20 12:30N 38°12' E 015°37'4 8.3
2017-Apr-20 12:00N 38°08' E 015°34'1 2.4
2017-Apr-20 11:30N 38°08' E 015°32'612.0
2017-Apr-20 11:00N 38°13' E 015°37'1 1.6
2017-Apr-20 10:30N 38°13' E 015°38'5 9.1
2017-Apr-20 10:00N 38°09' E 015°36'3 7.0
2017-Apr-20 09:30N 38°08' E 015°31'0 0.0
2017-Apr-20 09:01N 38°08' E 015°31'510.0
2017-Apr-20 08:30N 38°12' E 015°36'3 5.1
2017-Apr-20 08:00N 38°13' E 015°38'4 7.8
2017-Apr-20 07:30N 38°10' E 015°36'4 8.5
2017-Apr-20 07:00N 38°08' E 015°31'0 0.0
2017-Apr-20 06:30N 38°08' E 015°31'1 1.0
2017-Apr-20 06:00N 38°08' E 015°32'612.5
2017-Apr-20 05:31N 38°13' E 015°36'1 2.5
2017-Apr-20 05:00N 38°13' E 015°38'3 7.0
2017-Apr-20 04:30N 38°10' E 015°36'4 9.0
2017-Apr-20 04:01N 38°08' E 015°31'2 3.3
2017-Apr-20 03:30N 38°09' E 015°33'611.7
2017-Apr-20 03:01N 38°13' E 015°38'0 0.0
2017-Apr-20 02:31N 38°13' E 015°38'5 9.0
2017-Apr-20 02:01N 38°09' E 015°36'4 7.4
2017-Apr-20 01:31N 38°08' E 015°31'1 2.5
2017-Apr-20 01:01N 38°09' E 015°33'511.0
2017-Apr-20 00:30N 38°13' E 015°37'1 1.0
2017-Apr-20 00:01N 38°13' E 015°38'5 9.2
2017-Apr-19 23:31N 38°09' E 015°35'3 6.3
2017-Apr-19 23:00N 38°08' E 015°31'4 8.4
2017-Apr-19 22:30N 38°11' E 015°35'3 6.4
2017-Apr-19 22:00N 38°13' E 015°38'3 6.0
2017-Apr-19 21:31N 38°10' E 015°37'5 9.3
2017-Apr-19 21:00N 38°08' E 015°32'1 2.0
2017-Apr-19 20:31N 38°09' E 015°33'611.6
2017-Apr-19 20:01N 38°13' E 015°37'0 0.8
2017-Apr-19 19:31N 38°13' E 015°38'4 8.4
2017-Apr-19 19:01N 38°09' E 015°36'4 7.3
2017-Apr-19 18:31N 38°08' E 015°31'2 3.1
2017-Apr-19 18:01N 38°09' E 015°33'612.1
2017-Apr-19 17:31N 38°13' E 015°38'1 2.6
2017-Apr-19 17:01N 38°12' E 015°37'4 8.4
2017-Apr-19 16:30N 38°09' E 015°35'3 4.9
2017-Apr-19 16:00N 38°08' E 015°31'4 7.6
2017-Apr-19 15:31N 38°08' E 015°36'2 4.7
2017-Apr-19 15:00N 38°07' E 015°39'1 1.8
2017-Apr-19 14:30N 38°08' E 015°38'5 5.3
2017-Apr-19 13:30N 38°08' E 015°31'510.6
2017-Apr-19 13:00N 38°08' E 015°38'1 2.0
2017-Apr-19 12:30N 38°07' E 015°39'4 8.0
2017-Apr-19 12:01N 38°08' E 015°34'2 4.0
2017-Apr-19 11:29N 38°08' E 015°31'4 7.6
2017-Apr-19 11:00N 38°08' E 015°36'2 4.9
2017-Apr-19 10:31N 38°07' E 015°39'3 6.1
2017-Apr-19 10:00N 38°08' E 015°35'3 6.3
2017-Apr-19 09:30N 38°08' E 015°31'1 2.6
2017-Apr-19 09:00N 38°09' E 015°33'612.0
2017-Apr-19 08:31N 38°13' E 015°37'0 1.0
2017-Apr-19 08:01N 38°13' E 015°38'2 3.8
2017-Apr-19 07:30N 38°12' E 015°37'4 8.1
2017-Apr-19 07:00N 38°09' E 015°34'2 3.8
2017-Apr-19 06:30N 38°08' E 015°31'5 9.5
2017-Apr-19 06:00N 38°12' E 015°35'3 5.6
2017-Apr-19 05:31N 38°13' E 015°38'3 6.4
2017-Apr-19 05:01N 38°11' E 015°35'4 8.5
2017-Apr-19 04:30N 38°08' E 015°31'1 1.0
2017-Apr-19 04:01N 38°08' E 015°32'611.4
2017-Apr-19 03:31N 38°13' E 015°36'1 1.5
2017-Apr-19 03:00N 38°12' E 015°36'2 3.8
2017-Apr-19 02:30N 38°13' E 015°34'0 0.0
2017-Apr-19 02:01N 38°13' E 015°34'0 0.0
2017-Apr-19 01:31N 38°13' E 015°34'0 0.2
2017-Apr-19 01:01N 38°13' E 015°34'3 5.2
2017-Apr-19 00:30N 38°13' E 015°37'2 3.6
2017-Apr-19 00:00N 38°11' E 015°37'510.6
2017-Apr-18 23:30N 38°08' E 015°32'1 2.3
2017-Apr-18 23:00N 38°09' E 015°33'510.8
2017-Apr-18 22:31N 38°13' E 015°37'1 1.8
2017-Apr-18 22:00N 38°12' E 015°37'5 9.5
2017-Apr-18 21:30N 38°08' E 015°33'1 2.3
2017-Apr-18 21:00N 38°08' E 015°32'511.1
2017-Apr-18 20:31N 38°13' E 015°36'2 3.4
2017-Apr-18 20:01N 38°13' E 015°38'5 9.8
2017-Apr-18 19:30N 38°09' E 015°36'4 7.2
2017-Apr-18 19:00N 38°08' E 015°31'4 8.7
2017-Apr-18 18:30N 38°11' E 015°35'3 6.2
2017-Apr-18 18:00N 38°13' E 015°38'3 6.8
2017-Apr-18 17:30N 38°13' E 015°34'0 0.2
2017-Apr-18 17:00N 38°13' E 015°34'3 6.6
2017-Apr-18 16:30N 38°13' E 015°38'2 4.1
2017-Apr-18 16:01N 38°12' E 015°36'1 3.0
2017-Apr-18 15:30N 38°13' E 015°34'3 6.7
2017-Apr-18 15:00N 38°13' E 015°38'0 0.7
2017-Apr-18 14:30N 38°13' E 015°38'0 0.4
2017-Apr-18 13:30N 38°13' E 015°38'1 2.6
2017-Apr-18 13:00N 38°13' E 015°36'2 4.3
2017-Apr-18 12:30N 38°13' E 015°34'3 6.8
2017-Apr-18 12:00N 38°13' E 015°38'3 6.2
2017-Apr-18 11:30N 38°13' E 015°34'1 2.6
2017-Apr-18 11:00N 38°13' E 015°36'2 3.7
2017-Apr-18 10:30N 38°13' E 015°38'4 7.4
2017-Apr-18 10:00N 38°10' E 015°37'5 9.6
2017-Apr-18 09:30N 38°08' E 015°31'1 1.1
2017-Apr-18 09:00N 38°08' E 015°32'611.4
2017-Apr-18 08:30N 38°13' E 015°36'2 3.1
2017-Apr-18 08:00N 38°13' E 015°38'2 4.7
2017-Apr-18 07:30N 38°11' E 015°37'4 8.6
2017-Apr-18 07:00N 38°08' E 015°33'1 2.5
2017-Apr-18 06:30N 38°08' E 015°31'510.5
2017-Apr-18 06:01N 38°12' E 015°36'2 4.6
2017-Apr-18 05:31N 38°13' E 015°38'2 4.9
2017-Apr-18 05:00N 38°11' E 015°37'4 8.1
2017-Apr-18 04:31N 38°08' E 015°33'2 3.1
2017-Apr-18 04:00N 38°08' E 015°31'2 4.1
2017-Apr-18 03:31N 38°09' E 015°34'611.1
2017-Apr-18 03:00N 38°13' E 015°38'0 0.2
2017-Apr-18 02:30N 38°13' E 015°38'510.4
2017-Apr-18 02:01N 38°09' E 015°35'3 6.1
2017-Apr-18 01:30N 38°08' E 015°31'1 1.3
2017-Apr-18 01:00N 38°08' E 015°32'611.2
2017-Apr-18 00:30N 38°13' E 015°36'2 3.2
2017-Apr-18 00:00N 38°13' E 015°38'3 5.6
2017-Apr-17 23:30N 38°11' E 015°37'510.2
2017-Apr-17 23:00N 38°08' E 015°31'2 4.3
2017-Apr-17 22:30N 38°09' E 015°34'510.7
2017-Apr-17 22:00N 38°14' E 015°38'1 3.0
2017-Apr-17 21:30N 38°12' E 015°37'5 9.4
2017-Apr-17 21:01N 38°08' E 015°34'1 2.3
2017-Apr-17 20:30N 38°08' E 015°32'611.2
2017-Apr-17 20:00N 38°13' E 015°36'1 2.2
2017-Apr-17 19:30N 38°13' E 015°38'5 9.4
2017-Apr-17 19:00N 38°09' E 015°35'3 5.2
2017-Apr-17 18:30N 38°08' E 015°31'0 0.5
2017-Apr-17 18:00N 38°08' E 015°32'612.6
2017-Apr-17 17:30N 38°13' E 015°36'1 2.2
2017-Apr-17 17:00N 38°12' E 015°37'4 8.6
2017-Apr-17 16:30N 38°09' E 015°35'3 4.9
2017-Apr-17 15:59N 38°08' E 015°31'613.0
2017-Apr-17 15:31N 38°13' E 015°36'2 3.3
2017-Apr-17 15:00N 38°13' E 015°38'4 8.3
2017-Apr-17 14:30N 38°09' E 015°36'2 2.4
2017-Apr-17 13:30N 38°09' E 015°33'612.0
2017-Apr-17 13:00N 38°13' E 015°38'1 2.9
2017-Apr-17 12:30N 38°12' E 015°37'5 9.1
2017-Apr-17 12:00N 38°09' E 015°34'2 3.2
2017-Apr-17 11:29N 38°08' E 015°32'511.0
2017-Apr-17 11:00N 38°12' E 015°35'2 4.6
2017-Apr-17 10:30N 38°13' E 015°38'4 8.9
2017-Apr-17 10:00N 38°09' E 015°36'4 5.5
2017-Apr-17 09:18N 38°08' E 015°31'1 2.1
2017-Apr-17 08:58N 38°08' E 015°32'511.4
2017-Apr-17 08:30N 38°13' E 015°36'2 3.3
2017-Apr-17 08:00N 38°13' E 015°38'3 6.7
2017-Apr-17 07:30N 38°10' E 015°37'5 9.6
2017-Apr-17 06:59N 38°08' E 015°31'0 0.0
2017-Apr-17 06:20N 38°08' E 015°31'412.0
2017-Apr-17 06:00N 38°11' E 015°35'3 7.0
2017-Apr-17 05:30N 38°13' E 015°38'3 7.0
2017-Apr-17 05:00N 38°10' E 015°37'5 4.3
2017-Apr-17 03:50N 38°08' E 015°31'3 8.8
2017-Apr-17 03:30N 38°10' E 015°35'5 9.5
2017-Apr-17 03:00N 38°13' E 015°38'1 2.9
2017-Apr-17 02:30N 38°12' E 015°37'5 9.6
2017-Apr-17 02:00N 38°08' E 015°33'1 1.6
2017-Apr-17 01:06N 38°08' E 015°31'1 8.4
2017-Apr-17 01:00N 38°08' E 015°32'611.6
2017-Apr-17 00:30N 38°13' E 015°37'1 2.2
2017-Apr-17 00:00N 38°13' E 015°38'3 5.2
2017-Apr-16 23:30N 38°11' E 015°37'510.4
2017-Apr-16 22:59N 38°08' E 015°31'2 3.3
2017-Apr-16 22:30N 38°09' E 015°33'511.0
2017-Apr-16 22:00N 38°13' E 015°37'1 3.0
2017-Apr-16 21:30N 38°12' E 015°37'5 9.5
2017-Apr-16 21:00N 38°08' E 015°33'2 3.0
2017-Apr-16 20:30N 38°08' E 015°31'510.1
2017-Apr-16 20:00N 38°12' E 015°35'3 5.2
2017-Apr-16 19:30N 38°13' E 015°38'4 8.5
2017-Apr-16 19:00N 38°09' E 015°36'4 4.8
2017-Apr-16 18:10N 38°08' E 015°31'1 8.2
2017-Apr-16 18:00N 38°09' E 015°33'611.7
2017-Apr-16 17:30N 38°13' E 015°37'2 4.3
2017-Apr-16 17:00N 38°11' E 015°37'4 8.6
2017-Apr-16 16:30N 38°08' E 015°33'1 2.7
2017-Apr-16 16:00N 38°08' E 015°31'5 9.8
2017-Apr-16 15:29N 38°12' E 015°35'2 5.0
2017-Apr-16 15:00N 38°13' E 015°38'4 8.6
2017-Apr-16 14:30N 38°09' E 015°36'2 1.9
2017-Apr-16 13:30N 38°09' E 015°34'510.2
2017-Apr-16 13:00N 38°13' E 015°38'1 1.8
2017-Apr-16 12:30N 38°13' E 015°37'5 9.0
2017-Apr-16 11:59N 38°09' E 015°34'2 4.7
2017-Apr-16 11:28N 38°08' E 015°31'612.2
2017-Apr-16 11:00N 38°13' E 015°36'2 3.9
2017-Apr-16 10:30N 38°13' E 015°38'5 9.5
2017-Apr-16 10:00N 38°09' E 015°36'4 7.2
2017-Apr-16 09:30N 38°08' E 015°31'0 0.0
2017-Apr-16 09:00N 38°08' E 015°31'5 9.8
2017-Apr-16 08:30N 38°12' E 015°35'3 5.3
2017-Apr-16 08:00N 38°13' E 015°38'1 1.9
2017-Apr-16 07:30N 38°13' E 015°37'5 9.1
2017-Apr-16 06:59N 38°08' E 015°35'3 5.2
2017-Apr-16 06:30N 38°08' E 015°31'4 8.2
2017-Apr-16 06:00N 38°11' E 015°35'4 7.1
2017-Apr-16 05:31N 38°13' E 015°38'3 5.0
2017-Apr-16 05:01N 38°11' E 015°37'4 8.7
2017-Apr-16 04:30N 38°08' E 015°33'1 1.3
2017-Apr-16 03:46N 38°08' E 015°31'312.4
2017-Apr-16 03:30N 38°10' E 015°35'4 8.6
2017-Apr-16 03:00N 38°13' E 015°38'3 5.4
2017-Apr-16 02:30N 38°11' E 015°37'4 8.2
2017-Apr-16 02:00N 38°08' E 015°33'1 1.7
2017-Apr-16 01:17N 38°08' E 015°31'3 9.1
2017-Apr-16 01:00N 38°10' E 015°34'5 9.9
2017-Apr-16 00:30N 38°13' E 015°38'0 0.0
2017-Apr-16 00:00N 38°13' E 015°38'4 9.0
2017-Apr-15 23:30N 38°09' E 015°36'4 7.8
2017-Apr-15 23:00N 38°08' E 015°31'1 2.4
2017-Apr-15 22:30N 38°09' E 015°33'611.4
2017-Apr-15 22:00N 38°13' E 015°37'0 0.8
2017-Apr-15 21:31N 38°13' E 015°37'510.0
2017-Apr-15 21:00N 38°09' E 015°34'2 4.7
2017-Apr-15 20:30N 38°08' E 015°31'5 9.3
2017-Apr-15 20:00N 38°11' E 015°35'3 5.7
2017-Apr-15 19:30N 38°13' E 015°38'4 8.5
2017-Apr-15 19:00N 38°09' E 015°36'4 8.2
2017-Apr-15 18:30N 38°08' E 015°31'2 4.8
2017-Apr-15 18:00N 38°09' E 015°34'510.3
2017-Apr-15 17:30N 38°13' E 015°38'3 5.8
2017-Apr-15 17:00N 38°11' E 015°37'5 9.5
2017-Apr-15 16:30N 38°08' E 015°32'2 3.8
2017-Apr-15 16:00N 38°09' E 015°34'510.8
2017-Apr-15 15:30N 38°13' E 015°38'3 6.0
2017-Apr-15 15:00N 38°10' E 015°37'4 8.7
2017-Apr-15 14:30N 38°08' E 015°32'6 5.8
2017-Apr-15 13:30N 38°13' E 015°36'1 1.9
2017-Apr-15 13:00N 38°13' E 015°37'4 8.3
2017-Apr-15 12:30N 38°09' E 015°36'3 6.8
2017-Apr-15 12:00N 38°08' E 015°31'1 2.4
2017-Apr-15 11:30N 38°09' E 015°33'612.6
2017-Apr-15 11:01N 38°14' E 015°38'0 0.5
2017-Apr-15 10:31N 38°13' E 015°38'5 9.1
2017-Apr-15 10:00N 38°09' E 015°36'4 7.5
2017-Apr-15 09:30N 38°08' E 015°31'0 0.0
2017-Apr-15 09:00N 38°08' E 015°31'5 9.3
2017-Apr-15 08:30N 38°11' E 015°35'3 6.0
2017-Apr-15 08:01N 38°13' E 015°38'2 4.9
2017-Apr-15 07:30N 38°11' E 015°37'510.0
2017-Apr-15 07:00N 38°08' E 015°32'0 0.7
2017-Apr-15 06:31N 38°08' E 015°31'4 8.1
2017-Apr-15 06:01N 38°11' E 015°35'3 6.8
2017-Apr-15 05:30N 38°13' E 015°38'4 7.7
2017-Apr-15 05:01N 38°10' E 015°37'5 9.6
2017-Apr-15 04:30N 38°08' E 015°31'0 0.0
2017-Apr-15 04:00N 38°08' E 015°31'2 4.6
2017-Apr-15 03:30N 38°09' E 015°34'510.7
2017-Apr-15 03:00N 38°13' E 015°38'2 3.8
2017-Apr-15 02:30N 38°12' E 015°37'4 8.1
2017-Apr-15 02:00N 38°08' E 015°34'2 4.3
2017-Apr-15 01:30N 38°08' E 015°31'0 0.6
2017-Apr-15 01:00N 38°08' E 015°32'612.2
2017-Apr-15 00:30N 38°13' E 015°36'1 2.2
2017-Apr-15 00:00N 38°13' E 015°38'5 9.7
2017-Apr-14 23:30N 38°09' E 015°35'3 6.3
2017-Apr-14 23:00N 38°08' E 015°31'4 7.1
2017-Apr-14 22:30N 38°10' E 015°35'4 7.9
2017-Apr-14 22:01N 38°13' E 015°38'2 4.6
2017-Apr-14 21:31N 38°11' E 015°37'5 9.6
2017-Apr-14 21:00N 38°08' E 015°32'1 1.5
2017-Apr-14 20:30N 38°08' E 015°31'510.9
2017-Apr-14 20:00N 38°12' E 015°36'2 3.5
2017-Apr-14 19:30N 38°13' E 015°38'510.0
2017-Apr-14 19:00N 38°09' E 015°35'3 5.5
2017-Apr-14 18:30N 38°08' E 015°31'4 8.2
2017-Apr-14 18:00N 38°11' E 015°35'3 6.9
2017-Apr-14 17:30N 38°13' E 015°38'4 7.2
2017-Apr-14 17:00N 38°10' E 015°37'5 9.2
2017-Apr-14 16:30N 38°08' E 015°31'3 5.1
2017-Apr-14 16:00N 38°10' E 015°34'510.0
2017-Apr-14 15:30N 38°13' E 015°38'2 4.6
2017-Apr-14 15:00N 38°11' E 015°37'4 8.3
2017-Apr-14 14:31N 38°08' E 015°33'4 4.3
2017-Apr-14 13:30N 38°12' E 015°36'2 4.1
2017-Apr-14 13:00N 38°13' E 015°38'4 8.6
2017-Apr-14 12:31N 38°09' E 015°36'4 8.0
2017-Apr-14 12:00N 38°08' E 015°31'0 0.0
2017-Apr-14 11:30N 38°08' E 015°31'511.0
2017-Apr-14 11:01N 38°12' E 015°36'2 4.2
2017-Apr-14 10:31N 38°13' E 015°38'4 7.3
2017-Apr-14 10:00N 38°10' E 015°37'4 9.0
2017-Apr-14 09:31N 38°08' E 015°31'0 0.0
2017-Apr-14 09:01N 38°08' E 015°31'2 4.1
2017-Apr-14 08:31N 38°09' E 015°34'511.0
2017-Apr-14 08:01N 38°13' E 015°38'1 1.4
2017-Apr-14 07:31N 38°13' E 015°37'5 9.5
2017-Apr-14 07:00N 38°09' E 015°34'3 5.1
2017-Apr-14 06:30N 38°08' E 015°31'2 4.1
2017-Apr-14 06:01N 38°09' E 015°34'511.0
2017-Apr-14 05:31N 38°14' E 015°38'0 0.8
2017-Apr-14 05:01N 38°13' E 015°38'5 9.5
2017-Apr-14 04:31N 38°09' E 015°35'3 6.2
2017-Apr-14 04:00N 38°08' E 015°31'2 3.9
2017-Apr-14 03:31N 38°09' E 015°33'611.3
2017-Apr-14 03:01N 38°14' E 015°38'0 0.9
2017-Apr-14 02:31N 38°13' E 015°37'5 9.2
2017-Apr-14 02:01N 38°09' E 015°35'3 6.6
2017-Apr-14 01:30N 38°08' E 015°31'1 1.8
2017-Apr-14 01:01N 38°08' E 015°32'612.7
2017-Apr-14 00:30N 38°13' E 015°38'0 0.7
2017-Apr-14 00:00N 38°13' E 015°38'3 5.9
2017-Apr-13 23:30N 38°11' E 015°37'5 9.8
2017-Apr-13 23:00N 38°08' E 015°31'2 4.3
2017-Apr-13 22:30N 38°09' E 015°34'510.7
2017-Apr-13 22:00N 38°13' E 015°38'2 3.0
2017-Apr-13 21:30N 38°12' E 015°37'5 9.2
2017-Apr-13 21:00N 38°08' E 015°33'1 2.3
2017-Apr-13 20:30N 38°08' E 015°32'611.3
2017-Apr-13 20:01N 38°13' E 015°36'2 3.3
2017-Apr-13 19:31N 38°13' E 015°38'510.0
2017-Apr-13 19:00N 38°09' E 015°35'3 6.5
2017-Apr-13 18:30N 38°08' E 015°31'3 6.4
2017-Apr-13 18:01N 38°10' E 015°35'4 8.6
2017-Apr-13 17:30N 38°13' E 015°38'3 5.5
2017-Apr-13 17:00N 38°11' E 015°37'5 9.8
2017-Apr-13 16:30N 38°08' E 015°32'2 4.8
2017-Apr-13 16:00N 38°10' E 015°34'5 9.3
2017-Apr-13 15:30N 38°13' E 015°38'3 5.7
2017-Apr-13 15:00N 38°11' E 015°37'5 4.7
2017-Apr-13 14:00N 38°08' E 015°32'2 4.7
2017-Apr-13 13:31N 38°10' E 015°34'5 9.5
2017-Apr-13 13:00N 38°13' E 015°38'2 4.3
2017-Apr-13 12:30N 38°11' E 015°37'4 7.5
2017-Apr-13 12:00N 38°08' E 015°34'2 4.2
2017-Apr-13 11:29N 38°08' E 015°31'  

Dump ship's entire track history